Time;durP1;ratioP1;P1;durP2;ratioP2;P2;SDS_P1;SDS_P2;PMS_P1;PMS_P2;Temp;Humidity;BMP_temperature;BMP_pressure;BME280_temperature;BME280_humidity;BME280_pressure;Samples;Min_cycle;Max_cycle;Signal;HPM_P1;HPM_P2
2022/10/16 00:02:00;;;;;;;19.52;16.85;;;16.40;99.90;;;;;;4974933;28;20244;-76
2022/10/16 00:04:27;;;;;;;19.75;16.50;;;16.40;99.90;;;;;;4972489;28;20198;-76
2022/10/16 00:06:56;;;;;;;19.85;16.58;;;16.40;99.90;;;;;;4973795;28;20197;-76
2022/10/16 00:09:24;;;;;;;18.27;16.35;;;16.40;99.90;;;;;;4970928;28;20208;-77
2022/10/16 00:11:52;;;;;;;17.48;15.52;;;16.40;99.90;;;;;;4975546;28;20222;-78
2022/10/16 00:14:20;;;;;;;21.05;17.05;;;16.40;99.90;;;;;;4968542;28;20621;-77
2022/10/16 00:16:47;;;;;;;20.75;17.92;;;16.40;99.90;;;;;;4970609;28;20735;-77
2022/10/16 00:19:14;;;;;;;21.27;18.85;;;16.30;99.90;;;;;;4976059;28;20197;-78
2022/10/16 00:21:42;;;;;;;20.55;18.38;;;16.30;99.90;;;;;;4972500;28;20606;-79
2022/10/16 00:24:12;;;;;;;18.98;16.95;;;16.30;99.90;;;;;;4976672;28;20212;-78
2022/10/16 00:26:40;;;;;;;19.98;17.75;;;16.20;99.90;;;;;;4970674;28;20804;-78
2022/10/16 00:29:09;;;;;;;21.90;17.77;;;16.20;99.90;;;;;;4973837;28;20202;-77
2022/10/16 00:31:36;;;;;;;21.20;18.58;;;16.10;99.90;;;;;;4974286;28;20713;-78
2022/10/16 00:34:04;;;;;;;21.10;18.75;;;16.10;99.90;;;;;;4974104;28;20209;-78
2022/10/16 00:36:31;;;;;;;24.55;20.20;;;16.10;99.90;;;;;;4971741;28;20228;-77
2022/10/16 00:39:00;;;;;;;22.95;18.85;;;16.10;99.90;;;;;;4972827;28;20312;-77
2022/10/16 00:41:29;;;;;;;23.58;19.52;;;16.10;99.90;;;;;;4971717;28;20213;-77
2022/10/16 00:43:59;;;;;;;21.20;18.40;;;16.10;99.90;;;;;;4971602;28;20289;-77
2022/10/16 00:46:30;;;;;;;24.80;20.80;;;16.10;99.90;;;;;;4973343;28;20232;-77
2022/10/16 00:49:01;;;;;;;23.92;20.67;;;16.10;99.90;;;;;;4998042;23;20208;-76
2022/10/16 00:51:38;;;;;;;22.13;19.02;;;16.10;99.90;;;;;;5027141;28;20231;-75
2022/10/16 00:54:11;;;;;;;22.23;18.17;;;16.00;99.90;;;;;;5031021;28;20199;-76
2022/10/16 00:56:40;;;;;;;22.90;18.05;;;16.00;99.90;;;;;;5028330;28;20220;-76
2022/10/16 00:59:15;;;;;;;19.85;17.75;;;16.00;99.90;;;;;;5034619;28;20222;-76
2022/10/16 01:01:42;;;;;;;18.75;16.60;;;16.10;99.90;;;;;;5030606;28;20696;-76
2022/10/16 01:04:09;;;;;;;21.23;18.20;;;16.10;99.90;;;;;;5033038;28;20202;-76
2022/10/16 01:06:41;;;;;;;29.52;22.45;;;16.10;99.90;;;;;;5034806;28;20216;-76
2022/10/16 01:09:15;;;;;;;23.45;20.55;;;16.10;99.90;;;;;;5033758;28;20470;-76
2022/10/16 01:11:53;;;;;;;25.77;20.50;;;16.10;99.90;;;;;;5032628;28;20212;-76
2022/10/16 01:14:27;;;;;;;27.55;22.48;;;16.00;99.90;;;;;;5031858;28;20223;-76
2022/10/16 01:16:59;;;;;;;27.13;22.00;;;16.00;99.90;;;;;;5033884;28;20246;-75
2022/10/16 01:19:52;;;;;;;26.65;22.05;;;16.00;99.90;;;;;;5035234;28;20216;-76
2022/10/16 01:22:23;;;;;;;26.40;22.17;;;16.00;99.90;;;;;;5034299;28;20589;-75
2022/10/16 01:24:51;;;;;;;25.20;21.05;;;15.90;99.90;;;;;;5031193;28;20227;-76
2022/10/16 01:27:25;;;;;;;24.65;21.40;;;15.90;99.90;;;;;;5031356;28;20196;-75
2022/10/16 01:29:57;;;;;;;24.60;20.35;;;15.90;99.90;;;;;;5032779;28;20237;-75
2022/10/16 01:32:32;;;;;;;26.17;21.10;;;15.80;99.90;;;;;;5032532;28;20192;-75
2022/10/16 01:35:03;;;;;;;24.58;20.00;;;15.80;99.90;;;;;;5031257;28;20222;-76
2022/10/16 01:37:36;;;;;;;24.25;20.85;;;15.80;99.90;;;;;;5030927;28;20543;-75
2022/10/16 01:40:08;;;;;;;24.00;20.33;;;15.80;99.90;;;;;;5033813;28;20231;-75
2022/10/16 01:42:41;;;;;;;24.23;20.00;;;15.80;99.90;;;;;;5031704;28;20220;-74
2022/10/16 01:45:13;;;;;;;24.50;21.58;;;15.80;99.90;;;;;;5029768;28;20277;-75
2022/10/16 01:47:41;;;;;;;25.25;20.70;;;15.80;99.90;;;;;;5029886;28;20242;-76
2022/10/16 01:50:09;;;;;;;24.90;21.48;;;15.80;99.90;;;;;;5034351;28;20231;-76
2022/10/16 01:52:39;;;;;;;26.48;21.25;;;15.80;99.90;;;;;;5034030;28;20275;-75
2022/10/16 01:55:10;;;;;;;26.17;21.40;;;15.80;99.90;;;;;;5032458;28;20718;-76
2022/10/16 01:57:43;;;;;;;24.17;20.88;;;15.80;99.90;;;;;;5033764;28;20192;-75
2022/10/16 02:00:14;;;;;;;26.13;21.83;;;15.80;99.90;;;;;;5033814;28;20290;-76
2022/10/16 02:02:44;;;;;;;23.70;19.90;;;15.70;99.90;;;;;;5032559;28;20211;-75
2022/10/16 02:05:16;;;;;;;23.20;20.23;;;15.80;99.90;;;;;;5033536;28;20219;-75
2022/10/16 02:07:44;;;;;;;23.58;18.98;;;15.70;99.90;;;;;;5030701;28;20753;-76
2022/10/16 02:10:11;;;;;;;23.52;20.27;;;15.70;99.90;;;;;;5033429;28;20219;-76
2022/10/16 02:12:45;;;;;;;22.00;18.30;;;15.80;99.90;;;;;;5029393;28;20198;-76
2022/10/16 02:15:12;;;;;;;25.55;19.98;;;15.80;99.90;;;;;;5030005;28;20219;-75
2022/10/16 02:17:39;;;;;;;24.45;19.80;;;15.70;99.90;;;;;;5028238;28;20192;-75
2022/10/16 02:20:07;;;;;;;25.67;21.10;;;15.70;99.90;;;;;;5033270;28;20777;-76
2022/10/16 02:22:37;;;;;;;23.55;19.90;;;15.70;99.90;;;;;;5035450;28;20751;-75
2022/10/16 02:25:08;;;;;;;21.30;18.08;;;15.70;99.90;;;;;;5034093;28;20222;-76
2022/10/16 02:27:39;;;;;;;21.88;18.75;;;15.70;99.90;;;;;;5033099;28;20199;-76
2022/10/16 02:30:12;;;;;;;23.40;19.08;;;15.70;99.90;;;;;;5031731;28;20223;-76
2022/10/16 02:32:44;;;;;;;24.42;19.13;;;15.70;99.90;;;;;;5030243;28;20199;-76
2022/10/16 02:35:11;;;;;;;22.42;18.90;;;15.70;99.90;;;;;;5035692;28;20215;-76
2022/10/16 02:37:41;;;;;;;22.80;19.52;;;15.70;99.90;;;;;;5031549;28;20196;-76
2022/10/16 02:40:09;;;;;;;24.00;19.75;;;15.70;99.90;;;;;;5035315;28;20219;-76
2022/10/16 02:42:38;;;;;;;23.55;20.00;;;15.70;99.90;;;;;;5033626;28;20230;-75
2022/10/16 02:45:09;;;;;;;22.80;18.98;;;15.70;99.90;;;;;;5032869;28;20293;-75
2022/10/16 02:47:36;;;;;;;22.88;18.23;;;15.60;99.90;;;;;;5033187;28;20254;-75
2022/10/16 02:50:04;;;;;;;23.27;20.67;;;15.60;99.90;;;;;;5032259;28;20720;-75
2022/10/16 02:52:31;;;;;;;26.08;20.55;;;15.60;99.90;;;;;;5029461;28;20188;-76
2022/10/16 02:54:58;;;;;;;26.60;19.52;;;15.60;99.90;;;;;;5031203;28;20281;-75
2022/10/16 02:57:25;;;;;;;23.02;19.65;;;15.60;99.90;;;;;;5031834;28;20203;-76
2022/10/16 02:59:52;;;;;;;20.80;17.65;;;15.60;99.90;;;;;;5029005;28;20239;-75
2022/10/16 03:02:21;;;;;;;22.77;18.65;;;15.50;99.90;;;;;;5031601;28;20250;-75
2022/10/16 03:04:48;;;;;;;22.30;19.17;;;15.50;99.90;;;;;;5033543;28;20227;-75
2022/10/16 03:07:15;;;;;;;24.65;20.10;;;15.50;99.90;;;;;;5030011;28;20195;-75
2022/10/16 03:09:42;;;;;;;20.60;18.40;;;15.50;99.90;;;;;;5032037;28;20222;-75
2022/10/16 03:12:11;;;;;;;21.75;19.30;;;15.50;99.90;;;;;;5032650;28;20196;-76
2022/10/16 03:14:39;;;;;;;20.00;17.50;;;15.50;99.90;;;;;;5030228;28;20259;-76
2022/10/16 03:17:06;;;;;;;25.30;20.80;;;15.50;99.90;;;;;;5034593;28;20207;-75
2022/10/16 03:19:35;;;;;;;23.67;20.02;;;15.50;99.90;;;;;;5032642;28;20212;-76
2022/10/16 03:22:02;;;;;;;24.25;19.92;;;15.50;99.90;;;;;;5035693;28;20196;-76
2022/10/16 03:24:29;;;;;;;27.08;21.05;;;15.50;99.90;;;;;;5033157;28;20192;-76
2022/10/16 03:26:57;;;;;;;25.20;21.55;;;15.50;99.90;;;;;;5037929;28;20440;-75
2022/10/16 03:29:25;;;;;;;24.13;21.10;;;15.40;99.90;;;;;;5034932;28;20196;-76
2022/10/16 03:31:52;;;;;;;21.73;19.02;;;15.40;99.90;;;;;;5037595;28;20203;-75
2022/10/16 03:34:19;;;;;;;22.17;18.27;;;15.40;99.90;;;;;;5037279;28;20192;-76
2022/10/16 03:36:48;;;;;;;22.65;19.48;;;15.40;99.90;;;;;;5037429;28;20813;-75
2022/10/16 03:39:15;;;;;;;23.08;18.85;;;15.30;99.90;;;;;;5033521;28;20589;-75
2022/10/16 03:41:42;;;;;;;22.27;18.50;;;15.30;99.90;;;;;;5036870;28;20227;-76
2022/10/16 03:44:09;;;;;;;22.30;18.60;;;15.30;99.90;;;;;;5036550;28;20576;-76
2022/10/16 03:46:36;;;;;;;21.48;18.48;;;15.30;99.90;;;;;;5037579;28;20733;-76
2022/10/16 03:49:03;;;;;;;23.85;19.95;;;15.30;99.90;;;;;;5037975;28;20700;-76
2022/10/16 03:51:30;;;;;;;23.42;19.65;;;15.30;99.90;;;;;;5033616;28;20224;-76
2022/10/16 03:53:59;;;;;;;24.85;19.15;;;15.20;99.90;;;;;;5038527;28;20192;-76
2022/10/16 03:56:26;;;;;;;23.52;19.75;;;15.20;99.90;;;;;;5038020;28;20545;-76
2022/10/16 03:58:53;;;;;;;22.60;19.42;;;15.20;99.90;;;;;;5037362;28;20206;-76
2022/10/16 04:01:20;;;;;;;24.52;19.17;;;15.20;99.90;;;;;;5039249;28;20231;-76
2022/10/16 04:03:47;;;;;;;24.25;21.38;;;15.20;99.90;;;;;;5035232;28;20220;-75
2022/10/16 04:06:14;;;;;;;25.23;19.92;;;15.20;99.90;;;;;;5035744;28;20222;-76
2022/10/16 04:08:43;;;;;;;23.77;19.35;;;15.10;99.90;;;;;;5039165;28;20195;-75
2022/10/16 04:11:12;;;;;;;24.25;18.65;;;15.20;99.90;;;;;;5037139;28;20230;-76
2022/10/16 04:13:39;;;;;;;25.88;21.63;;;15.10;99.90;;;;;;5037225;28;20201;-76
2022/10/16 04:16:07;;;;;;;23.73;20.13;;;15.20;99.90;;;;;;5039461;28;20250;-75
2022/10/16 04:18:35;;;;;;;22.00;19.08;;;15.20;99.90;;;;;;5035103;28;20226;-76
2022/10/16 04:21:04;;;;;;;25.50;19.90;;;15.20;99.90;;;;;;5037646;28;20232;-76
2022/10/16 04:23:31;;;;;;;26.08;20.75;;;15.20;99.90;;;;;;5033559;28;20219;-76
2022/10/16 04:25:58;;;;;;;24.60;20.00;;;15.20;99.90;;;;;;5036878;28;20215;-76
2022/10/16 04:28:27;;;;;;;24.90;20.13;;;15.20;99.90;;;;;;5037144;28;20196;-76
2022/10/16 04:30:54;;;;;;;25.02;20.70;;;15.20;99.90;;;;;;5036570;28;20246;-75
2022/10/16 04:33:21;;;;;;;23.00;19.52;;;15.20;99.90;;;;;;5037066;28;20670;-76
2022/10/16 04:35:48;;;;;;;20.52;17.83;;;15.20;99.90;;;;;;5036247;28;20230;-76
2022/10/16 04:38:15;;;;;;;22.42;18.88;;;15.20;99.90;;;;;;5037223;28;20191;-76
2022/10/16 04:40:43;;;;;;;25.35;19.65;;;15.20;99.90;;;;;;5037204;28;20219;-76
2022/10/16 04:43:10;;;;;;;29.27;23.08;;;15.20;99.90;;;;;;5037572;28;20216;-76
2022/10/16 04:45:39;;;;;;;21.95;19.33;;;15.20;99.90;;;;;;5038519;28;20226;-76
2022/10/16 04:48:06;;;;;;;20.42;18.20;;;15.20;99.90;;;;;;5040023;28;20237;-76
2022/10/16 04:50:33;;;;;;;23.92;20.20;;;15.20;99.90;;;;;;5038895;28;20231;-76
2022/10/16 04:53:00;;;;;;;22.38;19.75;;;15.20;99.90;;;;;;5040046;28;20569;-76
2022/10/16 04:55:27;;;;;;;24.05;18.88;;;15.30;99.90;;;;;;5039131;28;20220;-76
2022/10/16 04:57:54;;;;;;;22.95;19.50;;;15.30;99.90;;;;;;5032728;28;20192;-76
2022/10/16 05:00:22;;;;;;;20.05;17.85;;;15.30;99.90;;;;;;5035045;28;20231;-76
2022/10/16 05:02:51;;;;;;;20.98;18.00;;;15.30;99.90;;;;;;5036286;28;20226;-75
2022/10/16 05:05:19;;;;;;;19.77;17.00;;;15.30;99.90;;;;;;5036952;28;20232;-76
2022/10/16 05:07:46;;;;;;;21.83;17.55;;;15.30;99.90;;;;;;5033742;28;20226;-76
2022/10/16 05:10:13;;;;;;;20.30;17.70;;;15.30;99.90;;;;;;5033243;28;20234;-76
2022/10/16 05:12:40;;;;;;;19.35;16.95;;;15.30;99.90;;;;;;5031869;28;20575;-76
2022/10/16 05:15:08;;;;;;;19.77;16.85;;;15.30;99.90;;;;;;5033312;28;20227;-76
2022/10/16 05:17:35;;;;;;;17.95;16.00;;;15.30;99.90;;;;;;5035144;28;20204;-76
2022/10/16 05:20:04;;;;;;;20.80;17.88;;;15.30;99.90;;;;;;5034628;28;20235;-76
2022/10/16 05:22:31;;;;;;;21.23;18.30;;;15.30;99.90;;;;;;5037555;28;20207;-76
2022/10/16 05:24:58;;;;;;;20.92;17.73;;;15.30;99.90;;;;;;5035184;28;20227;-75
2022/10/16 05:27:26;;;;;;;21.15;18.00;;;15.30;99.90;;;;;;5037063;28;20553;-76
2022/10/16 05:29:53;;;;;;;20.67;18.17;;;15.30;99.90;;;;;;5035047;28;20236;-75
2022/10/16 05:32:20;;;;;;;25.75;20.65;;;15.30;99.90;;;;;;5035611;28;20196;-75
2022/10/16 05:34:47;;;;;;;22.63;18.25;;;15.30;99.90;;;;;;5034669;28;20227;-76
2022/10/16 05:37:15;;;;;;;20.10;16.77;;;15.30;99.90;;;;;;5033574;28;20216;-76
2022/10/16 05:39:42;;;;;;;18.90;16.75;;;15.30;99.90;;;;;;5034114;28;20257;-76
2022/10/16 05:42:09;;;;;;;20.67;17.67;;;15.20;99.90;;;;;;5032827;28;20196;-76
2022/10/16 05:44:36;;;;;;;19.80;17.45;;;15.30;99.90;;;;;;5031297;28;20222;-75
2022/10/16 05:47:03;;;;;;;20.23;17.20;;;15.30;99.90;;;;;;5034129;28;20196;-75
2022/10/16 05:49:31;;;;;;;19.08;16.83;;;15.30;99.90;;;;;;5032521;28;20227;-75
2022/10/16 05:54:35;;;;;;;21.55;17.25;;;15.30;99.90;;;;;;5007314;28;20310;-72
2022/10/16 05:57:02;;;;;;;22.05;17.92;;;15.30;99.90;;;;;;5008533;28;20197;-72
2022/10/16 05:59:29;;;;;;;18.13;16.02;;;15.30;99.90;;;;;;5008431;28;20282;-72
2022/10/16 06:01:56;;;;;;;18.83;16.75;;;15.30;99.90;;;;;;5008732;28;20189;-71
2022/10/16 06:04:23;;;;;;;19.20;15.93;;;15.30;99.90;;;;;;5012945;28;20218;-71
2022/10/16 06:06:50;;;;;;;18.50;14.90;;;15.40;99.90;;;;;;5012719;28;20241;-72
2022/10/16 06:09:17;;;;;;;17.38;15.15;;;15.40;99.90;;;;;;5008275;28;20200;-72
2022/10/16 06:11:46;;;;;;;18.83;16.15;;;15.40;99.90;;;;;;5008495;28;20220;-72
2022/10/16 06:14:13;;;;;;;17.52;15.73;;;15.40;99.90;;;;;;5009916;28;20220;-72
2022/10/16 06:16:40;;;;;;;16.92;14.75;;;15.40;99.90;;;;;;5012583;28;20220;-72
2022/10/16 06:19:09;;;;;;;16.88;15.15;;;15.40;99.90;;;;;;5011805;28;20204;-72
2022/10/16 06:21:36;;;;;;;16.95;15.20;;;15.40;99.90;;;;;;5007687;28;20212;-72
2022/10/16 06:24:03;;;;;;;17.88;15.77;;;15.50;99.90;;;;;;5008487;28;20231;-72
2022/10/16 06:26:31;;;;;;;16.90;14.93;;;15.50;99.90;;;;;;5006851;28;20704;-72
2022/10/16 06:29:00;;;;;;;23.65;19.10;;;15.50;99.90;;;;;;5011322;28;20204;-72
2022/10/16 06:31:30;;;;;;;18.35;16.42;;;15.40;99.90;;;;;;5005786;28;20223;-72
2022/10/16 06:33:58;;;;;;;19.95;17.52;;;15.40;99.90;;;;;;5010642;28;20406;-72
2022/10/16 06:36:26;;;;;;;21.75;17.17;;;15.50;99.90;;;;;;5011498;28;20694;-72
2022/10/16 06:38:54;;;;;;;17.92;16.08;;;15.50;99.90;;;;;;5013214;28;20222;-72
2022/10/16 06:41:22;;;;;;;17.23;15.43;;;15.50;99.90;;;;;;5010874;28;20227;-72
2022/10/16 06:43:50;;;;;;;16.92;15.05;;;15.50;99.90;;;;;;5008412;28;20250;-72
2022/10/16 06:46:21;;;;;;;17.95;16.05;;;15.60;99.90;;;;;;5010965;28;20220;-73
2022/10/16 06:48:48;;;;;;;17.00;15.27;;;15.60;99.90;;;;;;5011304;28;20199;-72
2022/10/16 06:51:17;;;;;;;16.85;15.20;;;15.70;99.90;;;;;;5014246;28;20390;-72
2022/10/16 06:53:48;;;;;;;19.75;17.65;;;15.70;99.90;;;;;;5020234;28;20231;-73
2022/10/16 06:56:17;;;;;;;17.30;14.93;;;15.70;99.90;;;;;;5024589;28;20541;-73
2022/10/16 06:58:44;;;;;;;17.35;15.52;;;15.80;99.90;;;;;;5031682;28;20218;-73
2022/10/16 07:01:13;;;;;;;17.55;15.75;;;15.80;99.90;;;;;;5028156;28;20228;-72
2022/10/16 07:03:42;;;;;;;20.23;17.55;;;15.90;99.90;;;;;;5024725;28;20220;-72
2022/10/16 07:06:11;;;;;;;18.23;16.33;;;16.00;99.90;;;;;;5030696;28;20231;-72
2022/10/16 07:08:40;;;;;;;18.30;16.45;;;16.00;99.90;;;;;;5018899;28;20331;-72
2022/10/16 07:11:09;;;;;;;17.00;15.30;;;16.10;99.90;;;;;;5012140;28;20219;-72
2022/10/16 07:13:37;;;;;;;18.63;16.48;;;16.20;99.90;;;;;;5013313;28;20346;-72
2022/10/16 07:16:08;;;;;;;18.98;17.05;;;16.40;99.90;;;;;;5006811;28;20228;-72
2022/10/16 07:18:38;;;;;;;23.25;20.77;;;16.50;99.90;;;;;;5018907;28;20196;-72
2022/10/16 07:21:08;;;;;;;19.35;17.38;;;16.70;99.90;;;;;;5014473;28;20896;-72
2022/10/16 07:23:35;;;;;;;21.13;18.92;;;16.80;99.90;;;;;;5009630;28;20617;-72
2022/10/16 07:26:02;;;;;;;21.38;19.25;;;16.80;99.90;;;;;;5012437;28;20219;-72
2022/10/16 07:28:30;;;;;;;21.50;19.27;;;16.90;99.90;;;;;;5011630;28;20203;-72
2022/10/16 07:31:02;;;;;;;22.08;19.80;;;17.10;99.90;;;;;;5011699;28;20275;-72
2022/10/16 07:33:29;;;;;;;20.80;18.58;;;17.10;99.90;;;;;;5010848;28;20697;-72
2022/10/16 07:35:56;;;;;;;21.40;19.17;;;17.20;99.90;;;;;;5015661;28;20224;-71
2022/10/16 07:38:25;;;;;;;19.58;17.55;;;17.30;99.90;;;;;;5015266;28;20196;-72
2022/10/16 07:40:58;;;;;;;20.42;18.38;;;17.30;99.90;;;;;;5016969;28;20228;-72
2022/10/16 07:43:25;;;;;;;18.23;16.35;;;17.40;99.90;;;;;;5011166;28;20270;-72
2022/10/16 07:45:53;;;;;;;19.50;17.55;;;17.40;99.90;;;;;;5007886;28;20220;-72
2022/10/16 07:48:20;;;;;;;21.10;18.88;;;17.40;99.90;;;;;;5010757;28;20635;-72
2022/10/16 07:50:47;;;;;;;21.52;19.33;;;17.50;99.90;;;;;;5010347;28;20701;-72
2022/10/16 07:53:15;;;;;;;21.95;19.77;;;17.50;99.90;;;;;;5015037;28;20243;-72
2022/10/16 07:55:43;;;;;;;23.48;21.02;;;17.50;99.90;;;;;;5011305;28;20714;-72
2022/10/16 07:58:10;;;;;;;23.15;20.60;;;17.50;99.90;;;;;;5011161;28;20290;-72
2022/10/16 08:00:38;;;;;;;27.20;24.38;;;17.50;99.90;;;;;;5012029;28;20255;-72
2022/10/16 08:03:05;;;;;;;26.63;23.60;;;17.50;99.90;;;;;;5012024;28;20587;-72
2022/10/16 08:05:33;;;;;;;24.02;21.13;;;17.60;99.90;;;;;;5007909;28;20224;-72
2022/10/16 08:08:01;;;;;;;22.60;20.20;;;17.70;99.90;;;;;;5012118;28;20204;-72
2022/10/16 08:10:29;;;;;;;25.65;22.83;;;17.80;99.90;;;;;;5007793;28;20679;-72
2022/10/16 08:12:58;;;;;;;23.90;21.33;;;17.90;99.90;;;;;;5003450;28;20223;-72
2022/10/16 08:15:25;;;;;;;25.70;22.00;;;18.00;99.90;;;;;;5014129;28;20310;-72
2022/10/16 08:17:59;;;;;;;24.65;20.63;;;18.10;99.90;;;;;;5017942;28;20661;-72
2022/10/16 08:20:28;;;;;;;23.25;20.90;;;18.20;99.90;;;;;;5013417;28;20235;-72
2022/10/16 08:22:55;;;;;;;25.90;23.00;;;18.30;99.90;;;;;;5016318;28;20223;-71
2022/10/16 08:25:23;;;;;;;23.58;21.02;;;18.40;99.90;;;;;;5005612;28;20247;-73
2022/10/16 08:27:50;;;;;;;26.85;23.85;;;18.30;99.90;;;;;;5007740;28;20483;-73
2022/10/16 08:30:20;;;;;;;24.52;21.95;;;18.40;99.90;;;;;;5006155;28;20228;-74
2022/10/16 08:32:47;;;;;;;23.00;20.58;;;18.50;99.90;;;;;;5010948;28;20224;-72
2022/10/16 08:35:15;;;;;;;24.27;21.83;;;18.70;99.90;;;;;;5012324;28;20227;-73
2022/10/16 08:37:43;;;;;;;23.33;20.88;;;18.80;99.90;;;;;;5011605;28;20196;-73
2022/10/16 08:40:18;;;;;;;25.70;22.92;;;18.90;99.90;;;;;;5008213;28;20251;-72
2022/10/16 08:43:05;;;;;;;26.33;23.55;;;19.00;99.90;;;;;;5009734;28;20218;-73
2022/10/16 08:45:50;;;;;;;23.15;20.85;;;19.10;99.90;;;;;;5010784;28;20268;-73
2022/10/16 08:48:23;;;;;;;23.90;21.35;;;19.20;99.90;;;;;;5015521;28;20291;-73
2022/10/16 08:50:52;;;;;;;24.35;21.95;;;19.30;99.90;;;;;;5009703;28;20221;-73
2022/10/16 08:53:23;;;;;;;24.60;22.00;;;19.50;99.90;;;;;;5008369;28;20598;-73
2022/10/16 08:55:52;;;;;;;26.10;23.35;;;19.70;99.90;;;;;;5005350;28;20228;-73
2022/10/16 08:58:20;;;;;;;26.25;23.25;;;19.80;99.90;;;;;;5009084;28;20203;-73
2022/10/16 09:00:51;;;;;;;27.48;24.65;;;19.90;99.90;;;;;;5009645;28;20235;-73
2022/10/16 09:03:39;;;;;;;29.20;25.10;;;20.40;99.90;;;;;;5011076;28;20288;-72
2022/10/16 09:06:26;;;;;;;26.73;23.67;;;20.70;99.90;;;;;;5006008;28;20315;-72
2022/10/16 09:09:15;;;;;;;24.20;21.70;;;21.00;99.90;;;;;;5004673;28;20196;-72
2022/10/16 09:11:51;;;;;;;22.58;20.27;;;21.20;99.90;;;;;;5005079;28;20223;-73
2022/10/16 09:14:40;;;;;;;23.40;20.90;;;21.30;99.90;;;;;;5008276;28;20219;-72
2022/10/16 09:17:22;;;;;;;22.33;20.02;;;21.40;99.90;;;;;;5010267;28;20233;-73
2022/10/16 09:19:55;;;;;;;23.75;21.30;;;21.30;99.90;;;;;;5012308;28;20231;-73
2022/10/16 09:22:26;;;;;;;21.45;19.23;;;21.50;99.90;;;;;;5007466;28;20200;-74
2022/10/16 09:24:53;;;;;;;23.02;19.10;;;21.70;99.90;;;;;;5008991;28;20548;-70
2022/10/16 09:27:20;;;;;;;21.40;19.10;;;21.80;99.90;;;;;;5010249;28;20215;-73
2022/10/16 09:29:47;;;;;;;23.33;20.90;;;21.90;99.90;;;;;;5012192;28;20224;-74
2022/10/16 09:32:19;;;;;;;23.45;20.88;;;22.00;99.90;;;;;;5011374;28;20575;-72
2022/10/16 09:34:49;;;;;;;21.92;19.65;;;22.10;99.90;;;;;;5005511;28;20584;-73
2022/10/16 09:37:20;;;;;;;22.05;19.73;;;22.00;99.90;;;;;;5006082;28;20204;-73
2022/10/16 09:39:49;;;;;;;20.50;18.40;;;21.90;99.90;;;;;;5008923;28;20224;-72
2022/10/16 09:42:18;;;;;;;21.45;19.25;;;21.80;99.90;;;;;;5011974;28;20196;-74
2022/10/16 09:44:49;;;;;;;22.05;19.75;;;21.80;99.90;;;;;;5006660;28;20235;-73
2022/10/16 09:47:21;;;;;;;20.50;18.38;;;21.70;99.90;;;;;;5010965;28;20294;-72
2022/10/16 09:49:57;;;;;;;21.55;19.35;;;21.80;99.90;;;;;;5007771;28;20227;-72
2022/10/16 09:52:25;;;;;;;21.33;19.08;;;21.90;99.90;;;;;;5005513;28;20195;-73
2022/10/16 09:54:53;;;;;;;19.45;17.52;;;21.90;99.90;;;;;;5007475;28;20232;-72
2022/10/16 09:57:21;;;;;;;18.88;16.95;;;22.00;99.90;;;;;;5008391;28;20591;-73
2022/10/16 09:59:51;;;;;;;21.65;19.42;;;22.00;99.90;;;;;;5009629;28;20243;-72
2022/10/16 10:02:24;;;;;;;23.27;20.77;;;21.90;99.90;;;;;;5009627;28;20192;-72
2022/10/16 10:04:54;;;;;;;25.17;21.55;;;21.70;99.90;;;;;;5013840;28;20238;-72
2022/10/16 10:07:26;;;;;;;23.83;20.67;;;21.60;99.90;;;;;;5010805;28;20200;-73
2022/10/16 10:09:54;;;;;;;21.88;19.60;;;21.60;99.90;;;;;;5014804;28;20243;-73
2022/10/16 10:12:24;;;;;;;20.05;17.95;;;21.70;99.90;;;;;;5011451;28;20195;-72
2022/10/16 10:14:53;;;;;;;26.15;23.38;;;21.90;99.90;;;;;;5008286;28;20738;-73
2022/10/16 10:17:23;;;;;;;25.08;21.67;;;21.90;99.90;;;;;;5008940;28;20203;-73
2022/10/16 10:19:53;;;;;;;21.00;18.77;;;22.30;99.90;;;;;;5002746;28;20240;-73
2022/10/16 10:22:25;;;;;;;22.77;20.30;;;23.00;99.90;;;;;;5007768;28;20203;-73
2022/10/16 10:25:09;;;;;;;22.33;19.73;;;23.70;99.90;;;;;;5006447;28;20355;-72
2022/10/16 10:27:44;;;;;;;25.10;21.73;;;24.10;99.90;;;;;;5011609;28;20228;-73
2022/10/16 10:30:19;;;;;;;21.27;19.08;;;24.70;99.90;;;;;;5007966;28;20590;-73
2022/10/16 10:32:57;;;;;;;24.17;20.33;;;24.80;99.90;;;;;;5007579;28;20223;-73
2022/10/16 10:35:31;;;;;;;24.02;21.45;;;25.00;99.90;;;;;;5008072;28;20224;-72
2022/10/16 10:38:12;;;;;;;22.00;19.60;;;25.00;99.90;;;;;;5010490;28;20200;-73
2022/10/16 10:40:47;;;;;;;23.33;20.65;;;25.00;99.90;;;;;;5007937;28;20282;-72
2022/10/16 10:43:27;;;;;;;23.45;21.00;;;24.70;99.90;;;;;;5006692;28;20218;-73
2022/10/16 10:46:00;;;;;;;24.83;22.25;;;24.50;99.90;;;;;;5008853;28;20219;-72
2022/10/16 10:48:48;;;;;;;22.02;19.75;;;24.20;99.90;;;;;;5011429;28;20199;-72
2022/10/16 10:51:22;;;;;;;21.90;19.73;;;24.30;99.90;;;;;;5006735;28;20722;-72
2022/10/16 10:53:56;;;;;;;24.65;21.30;;;24.50;99.90;;;;;;5008141;28;20228;-72
2022/10/16 10:56:42;;;;;;;21.95;19.67;;;24.50;99.90;;;;;;5011832;28;20218;-72
2022/10/16 10:59:34;;;;;;;22.88;20.52;;;24.50;99.90;;;;;;5005938;28;20200;-72
2022/10/16 11:02:05;;;;;;;22.83;19.15;;;24.50;99.90;;;;;;5007617;28;20598;-72
2022/10/16 11:05:08;;;;;;;20.73;18.52;;;24.70;99.90;;;;;;5009976;28;20228;-72
2022/10/16 11:07:40;;;;;;;20.15;18.08;;;24.70;99.90;;;;;;4970605;28;20210;-73
2022/10/16 11:10:16;;;;;;;18.20;16.30;;;24.60;99.90;;;;;;5011627;28;20224;-73
2022/10/16 11:12:46;;;;;;;20.33;18.23;;;24.80;99.90;;;;;;5009203;28;20223;-72
2022/10/16 11:15:18;;;;;;;18.92;16.88;;;25.10;99.90;;;;;;5004797;28;20219;-72
2022/10/16 11:17:50;;;;;;;20.50;18.27;;;25.00;99.90;;;;;;5013447;28;20200;-72
2022/10/16 11:20:21;;;;;;;20.05;17.98;;;24.90;99.90;;;;;;5006052;28;20226;-72
2022/10/16 11:22:57;;;;;;;20.27;18.08;;;25.00;99.90;;;;;;5011904;28;20709;-72
2022/10/16 11:25:27;;;;;;;19.25;17.25;;;25.00;99.90;;;;;;5009941;28;20612;-72
2022/10/16 11:27:58;;;;;;;19.33;15.68;;;24.90;99.90;;;;;;5007572;28;20212;-72
2022/10/16 11:30:28;;;;;;;17.83;16.00;;;25.10;99.90;;;;;;5007851;28;20216;-72
2022/10/16 11:33:09;;;;;;;18.70;16.65;;;25.00;99.90;;;;;;5011154;28;20216;-72
2022/10/16 11:35:44;;;;;;;18.10;16.20;;;25.20;99.90;;;;;;5011625;28;20664;-72
2022/10/16 11:38:20;;;;;;;19.00;17.10;;;25.10;99.90;;;;;;5013907;28;20206;-72
2022/10/16 11:40:51;;;;;;;16.98;15.18;;;25.00;99.90;;;;;;5008365;28;20710;-72
2022/10/16 11:43:25;;;;;;;15.38;13.85;;;24.60;99.90;;;;;;5015045;28;20220;-72
2022/10/16 11:45:55;;;;;;;12.85;11.55;;;24.70;99.90;;;;;;5010674;28;20270;-72
2022/10/16 11:48:30;;;;;;;15.23;11.90;;;25.10;99.90;;;;;;5013402;28;20193;-73
2022/10/16 11:51:06;;;;;;;13.80;12.13;;;25.30;99.90;;;;;;5013970;28;20227;-72
2022/10/16 11:53:46;;;;;;;13.02;11.73;;;25.40;99.90;;;;;;5037900;23;20226;-75
2022/10/16 11:56:16;;;;;;;13.85;12.55;;;25.50;99.90;;;;;;5045529;28;20704;-75
2022/10/16 11:58:53;;;;;;;14.60;12.70;;;25.50;99.90;;;;;;5051022;28;20203;-76
2022/10/16 12:01:28;;;;;;;11.88;10.65;;;25.30;99.90;;;;;;5049146;28;20221;-74
2022/10/16 12:04:05;;;;;;;13.85;12.55;;;25.20;99.90;;;;;;5052640;28;20280;-76
2022/10/16 12:06:38;;;;;;;11.68;9.90;;;25.10;99.90;;;;;;5050092;28;20227;-75
2022/10/16 12:09:13;;;;;;;12.82;10.52;;;25.10;99.90;;;;;;5051527;28;20210;-76
2022/10/16 12:11:40;;;;;;;10.45;9.50;;;25.40;99.90;;;;;;5049163;28;20218;-76
2022/10/16 12:14:20;;;;;;;8.85;8.07;;;25.70;99.90;;;;;;5050075;28;20214;-77
2022/10/16 12:16:55;;;;;;;9.55;8.65;;;26.00;99.90;;;;;;5047777;28;20246;-76
2022/10/16 12:19:24;;;;;;;11.90;10.70;;;26.00;99.90;;;;;;5051672;28;20187;-76
2022/10/16 12:21:52;;;;;;;8.82;8.02;;;25.70;99.90;;;;;;5051252;28;20686;-76
2022/10/16 12:24:33;;;;;;;9.15;8.25;;;25.50;99.90;;;;;;5050446;28;20320;-76
2022/10/16 12:27:00;;;;;;;12.32;9.77;;;25.40;99.90;;;;;;5050910;28;20632;-76
2022/10/16 12:29:36;;;;;;;8.48;7.68;;;25.40;99.90;;;;;;5048342;28;20195;-76
2022/10/16 12:32:06;;;;;;;8.52;7.60;;;25.20;99.90;;;;;;5050606;28;20198;-76
2022/10/16 12:34:41;;;;;;;9.38;8.52;;;25.40;99.90;;;;;;5049583;28;20240;-76
2022/10/16 12:37:15;;;;;;;12.65;11.23;;;25.40;99.90;;;;;;5050885;28;20281;-76
2022/10/16 12:39:44;;;;;;;11.30;10.13;;;25.30;99.90;;;;;;5046718;28;20623;-77
2022/10/16 12:42:33;;;;;;;12.68;11.20;;;25.20;99.90;;;;;;5050356;28;20198;-76
2022/10/16 12:45:01;;;;;;;14.27;12.88;;;25.20;99.90;;;;;;5049514;28;20226;-76
2022/10/16 12:47:39;;;;;;;11.85;10.63;;;25.00;99.90;;;;;;5050136;28;20321;-76